sensor_id;sensor_type;location;lat;lon;timestamp;pressure;altitude;pressure_sealevel;temperature;humidity
79413;BME280;68863;49.528;11.010;2023-04-09T00:01:04;98988.94;;;7.28;69.27
79413;BME280;68863;49.528;11.010;2023-04-09T00:02:08;98991.97;;;7.19;69.33
79413;BME280;68863;49.528;11.010;2023-04-09T00:03:09;98986.25;;;7.29;69.19
79413;BME280;68863;49.528;11.010;2023-04-09T00:04:09;98987.25;;;7.27;69.34
79413;BME280;68863;49.528;11.010;2023-04-09T00:05:10;98988.94;;;7.28;69.72
79413;BME280;68863;49.528;11.010;2023-04-09T00:06:10;98985.25;;;7.32;69.04
79413;BME280;68863;49.528;11.010;2023-04-09T00:07:11;98987.88;;;7.32;69.29
79413;BME280;68863;49.528;11.010;2023-04-09T00:08:11;98978.06;;;7.37;69.01
79413;BME280;68863;49.528;11.010;2023-04-09T00:09:12;98982.72;;;7.30;68.85
79413;BME280;68863;49.528;11.010;2023-04-09T00:10:12;98990.69;;;7.27;69.39
79413;BME280;68863;49.528;11.010;2023-04-09T00:11:12;98988.34;;;7.21;69.50
79413;BME280;68863;49.528;11.010;2023-04-09T00:12:12;98988.44;;;7.20;69.58
79413;BME280;68863;49.528;11.010;2023-04-09T00:13:13;98985.91;;;7.18;69.60
79413;BME280;68863;49.528;11.010;2023-04-09T00:14:13;98980.94;;;7.12;70.06
79413;BME280;68863;49.528;11.010;2023-04-09T00:15:13;98989.28;;;7.20;69.84
79413;BME280;68863;49.528;11.010;2023-04-09T00:16:13;98988.22;;;7.24;69.37
79413;BME280;68863;49.528;11.010;2023-04-09T00:17:14;98991.84;;;7.22;69.39
79413;BME280;68863;49.528;11.010;2023-04-09T00:18:15;98985.75;;;7.21;69.48
79413;BME280;68863;49.528;11.010;2023-04-09T00:19:16;98991.75;;;7.23;69.45
79413;BME280;68863;49.528;11.010;2023-04-09T00:20:16;98983.72;;;7.28;69.43
79413;BME280;68863;49.528;11.010;2023-04-09T00:21:16;98986.47;;;7.25;69.41
79413;BME280;68863;49.528;11.010;2023-04-09T00:22:16;98986.63;;;7.22;69.59
79413;BME280;68863;49.528;11.010;2023-04-09T00:23:17;98986.81;;;7.17;69.84
79413;BME280;68863;49.528;11.010;2023-04-09T00:24:17;98983.31;;;7.18;69.71
79413;BME280;68863;49.528;11.010;2023-04-09T00:25:17;98981.59;;;7.17;69.94
79413;BME280;68863;49.528;11.010;2023-04-09T00:26:18;98987.38;;;7.24;69.62
79413;BME280;68863;49.528;11.010;2023-04-09T00:27:20;98982.50;;;7.16;69.34
79413;BME280;68863;49.528;11.010;2023-04-09T00:28:20;98981.75;;;7.14;69.40
79413;BME280;68863;49.528;11.010;2023-04-09T00:29:20;98984.50;;;7.11;69.77
79413;BME280;68863;49.528;11.010;2023-04-09T00:30:21;98986.09;;;7.13;69.53
79413;BME280;68863;49.528;11.010;2023-04-09T00:31:21;98988.66;;;7.15;69.45
79413;BME280;68863;49.528;11.010;2023-04-09T00:32:22;98983.47;;;7.13;69.40
79413;BME280;68863;49.528;11.010;2023-04-09T00:33:22;98982.72;;;7.11;69.59
79413;BME280;68863;49.528;11.010;2023-04-09T00:34:22;98986.81;;;7.17;69.84
79413;BME280;68863;49.528;11.010;2023-04-09T00:35:23;98982.72;;;7.11;69.82
79413;BME280;68863;49.528;11.010;2023-04-09T00:36:23;98982.72;;;7.11;69.92
79413;BME280;68863;49.528;11.010;2023-04-09T00:37:23;98985.13;;;7.16;69.86
79413;BME280;68863;49.528;11.010;2023-04-09T00:38:24;98986.88;;;7.16;69.82
79413;BME280;68863;49.528;11.010;2023-04-09T00:39:24;98979.91;;;7.16;69.55
79413;BME280;68863;49.528;11.010;2023-04-09T00:40:24;98979.31;;;7.09;69.73
79413;BME280;68863;49.528;11.010;2023-04-09T00:41:25;98987.94;;;7.11;69.94
79413;BME280;68863;49.528;11.010;2023-04-09T00:42:25;98984.97;;;7.00;70.26
79413;BME280;68863;49.528;11.010;2023-04-09T00:43:26;98977.50;;;7.11;70.18
79413;BME280;68863;49.528;11.010;2023-04-09T00:44:26;98980.88;;;7.13;69.90
79413;BME280;68863;49.528;11.010;2023-04-09T00:45:27;98976.56;;;7.12;70.15
79413;BME280;68863;49.528;11.010;2023-04-09T00:46:27;98977.38;;;7.15;69.96
79413;BME280;68863;49.528;11.010;2023-04-09T00:47:28;98979.19;;;7.12;69.78
79413;BME280;68863;49.528;11.010;2023-04-09T00:48:29;98979.06;;;7.16;70.19
79413;BME280;68863;49.528;11.010;2023-04-09T00:49:30;98982.16;;;7.24;69.80
79413;BME280;68863;49.528;11.010;2023-04-09T00:50:30;98982.16;;;7.24;69.90
79413;BME280;68863;49.528;11.010;2023-04-09T00:51:30;98979.63;;;7.22;69.95
79413;BME280;68863;49.528;11.010;2023-04-09T00:52:32;98981.88;;;7.11;69.72
79413;BME280;68863;49.528;11.010;2023-04-09T00:53:32;98978.97;;;7.17;69.74
79413;BME280;68863;49.528;11.010;2023-04-09T00:54:33;98981.78;;;7.12;69.77
79413;BME280;68863;49.528;11.010;2023-04-09T00:55:34;98976.19;;;7.22;69.88
79413;BME280;68863;49.528;11.010;2023-04-09T00:56:35;98985.00;;;7.19;69.84
79413;BME280;68863;49.528;11.010;2023-04-09T00:57:36;98982.28;;;7.21;69.63
79413;BME280;68863;49.528;11.010;2023-04-09T00:58:36;98983.56;;;7.12;69.99
79413;BME280;68863;49.528;11.010;2023-04-09T00:59:37;98978.78;;;7.22;69.78
79413;BME280;68863;49.528;11.010;2023-04-09T01:00:37;98978.91;;;7.19;69.65
79413;BME280;68863;49.528;11.010;2023-04-09T01:01:37;98981.16;;;7.07;69.78
79413;BME280;68863;49.528;11.010;2023-04-09T01:02:38;98982.59;;;7.15;69.67
79413;BME280;68863;49.528;11.010;2023-04-09T01:03:39;98978.00;;;7.20;69.64
79413;BME280;68863;49.528;11.010;2023-04-09T01:04:41;98983.56;;;7.12;69.63
79413;BME280;68863;49.528;11.010;2023-04-09T01:05:50;98980.88;;;7.13;69.61
79413;BME280;68863;49.528;11.010;2023-04-09T01:07:04;98980.47;;;7.23;69.24
79413;BME280;68863;49.528;11.010;2023-04-09T01:08:17;98976.53;;;7.14;69.62
79413;BME280;68863;49.528;11.010;2023-04-09T01:09:36;98985.00;;;7.19;69.28
79413;BME280;68863;49.528;11.010;2023-04-09T01:10:46;98984.28;;;7.16;69.49
79413;BME280;68863;49.528;11.010;2023-04-09T01:12:17;98980.09;;;7.11;69.78
79413;BME280;68863;49.528;11.010;2023-04-09T01:14:05;98983.94;;;7.23;69.31
79413;BME280;68863;49.528;11.010;2023-04-09T01:15:09;98984.06;;;7.20;69.20
79413;BME280;68863;49.528;11.010;2023-04-09T01:16:11;98980.09;;;7.11;69.48
79413;BME280;68863;49.528;11.010;2023-04-09T01:17:22;98974.09;;;7.09;69.47
79413;BME280;68863;49.528;11.010;2023-04-09T01:18:38;98972.53;;;7.05;69.50
79413;BME280;68863;49.528;11.010;2023-04-09T01:20:55;98971.44;;;7.11;69.48
79413;BME280;68863;49.528;11.010;2023-04-09T01:21:57;98975.66;;;7.13;69.21
79413;BME280;68863;49.528;11.010;2023-04-09T01:23:09;98973.84;;;7.16;69.36
79413;BME280;68863;49.528;11.010;2023-04-09T01:26:57;98977.22;;;6.99;69.53
79413;BME280;68863;49.528;11.010;2023-04-09T01:29:19;98970.59;;;7.10;69.38
79413;BME280;68863;49.528;11.010;2023-04-09T01:30:20;98974.03;;;7.11;69.17
79413;BME280;68863;49.528;11.010;2023-04-09T01:31:31;98972.50;;;7.07;69.50
79413;BME280;68863;49.528;11.010;2023-04-09T01:32:33;98967.75;;;7.15;68.97
79413;BME280;68863;49.528;11.010;2023-04-09T01:33:36;98972.28;;;7.11;68.98
79413;BME280;68863;49.528;11.010;2023-04-09T01:34:37;98979.91;;;7.16;68.71
79413;BME280;68863;49.528;11.010;2023-04-09T01:35:40;98974.47;;;7.21;68.53
79413;BME280;68863;49.528;11.010;2023-04-09T01:36:45;98970.94;;;7.22;68.34
79413;BME280;68863;49.528;11.010;2023-04-09T01:37:48;98971.44;;;7.11;68.78
79413;BME280;68863;49.528;11.010;2023-04-09T01:38:49;98973.75;;;7.17;69.06
79413;BME280;68863;49.528;11.010;2023-04-09T01:39:51;98968.94;;;7.08;69.36
79413;BME280;68863;49.528;11.010;2023-04-09T01:40:53;98967.31;;;7.05;69.87
79413;BME280;68863;49.528;11.010;2023-04-09T01:41:54;98969.44;;;6.97;69.77
79413;BME280;68863;49.528;11.010;2023-04-09T01:42:55;98976.22;;;7.01;69.98
79413;BME280;68863;49.528;11.010;2023-04-09T01:43:57;98974.25;;;7.06;70.24
79413;BME280;68863;49.528;11.010;2023-04-09T01:45:01;98974.44;;;7.02;70.48
79413;BME280;68863;49.528;11.010;2023-04-09T01:46:02;98976.22;;;7.01;70.66
79413;BME280;68863;49.528;11.010;2023-04-09T01:47:03;98975.44;;;6.99;70.70
79413;BME280;68863;49.528;11.010;2023-04-09T01:48:04;98978.75;;;7.03;70.51
79413;BME280;68863;49.528;11.010;2023-04-09T01:49:05;98983.19;;;7.01;70.52
79413;BME280;68863;49.528;11.010;2023-04-09T01:50:06;98982.13;;;7.05;69.98
79413;BME280;68863;49.528;11.010;2023-04-09T01:51:07;98972.97;;;6.96;70.52
79413;BME280;68863;49.528;11.010;2023-04-09T01:52:08;98975.44;;;6.99;70.28
79413;BME280;68863;49.528;11.010;2023-04-09T01:53:08;98973.53;;;7.03;69.95
79413;BME280;68863;49.528;11.010;2023-04-09T01:54:09;98983.28;;;6.99;69.97
79413;BME280;68863;49.528;11.010;2023-04-09T01:55:09;98978.06;;;6.99;70.10
79413;BME280;68863;49.528;11.010;2023-04-09T01:56:10;98980.44;;;7.04;70.21
79413;BME280;68863;49.528;11.010;2023-04-09T01:57:10;98980.72;;;6.98;70.26
79413;BME280;68863;49.528;11.010;2023-04-09T01:58:10;98980.66;;;6.99;70.33
79413;BME280;68863;49.528;11.010;2023-04-09T01:59:11;98978.06;;;6.99;70.08
79413;BME280;68863;49.528;11.010;2023-04-09T02:00:11;98977.00;;;7.03;69.87
79413;BME280;68863;49.528;11.010;2023-04-09T02:01:16;98972.53;;;7.05;69.77
79413;BME280;68863;49.528;11.010;2023-04-09T02:02:25;98977.13;;;7.00;69.74
79413;BME280;68863;49.528;11.010;2023-04-09T02:03:33;98977.06;;;7.02;70.00
79413;BME280;68863;49.528;11.010;2023-04-09T02:04:39;98972.34;;;7.10;69.54
79413;BME280;68863;49.528;11.010;2023-04-09T02:05:43;98982.13;;;7.05;69.38
79413;BME280;68863;49.528;11.010;2023-04-09T02:07:03;98980.38;;;7.05;69.53
79413;BME280;68863;49.528;11.010;2023-04-09T02:08:06;98977.94;;;7.02;70.00
79413;BME280;68863;49.528;11.010;2023-04-09T02:09:07;98976.38;;;6.98;70.10
79413;BME280;68863;49.528;11.010;2023-04-09T02:10:09;98974.31;;;7.05;69.89
79413;BME280;68863;49.528;11.010;2023-04-09T02:11:13;98975.31;;;7.02;69.77
79413;BME280;68863;49.528;11.010;2023-04-09T02:12:16;98979.75;;;7.00;69.82
79413;BME280;68863;49.528;11.010;2023-04-09T02:13:18;98976.22;;;7.01;70.22
79413;BME280;68863;49.528;11.010;2023-04-09T02:14:19;98977.94;;;7.02;69.97
79413;BME280;68863;49.528;11.010;2023-04-09T02:15:20;98982.44;;;6.99;70.15
79413;BME280;68863;49.528;11.010;2023-04-09T02:16:21;98981.28;;;7.04;69.78
79413;BME280;68863;49.528;11.010;2023-04-09T02:17:22;98989.25;;;7.01;69.69
79413;BME280;68863;49.528;11.010;2023-04-09T02:18:23;98989.97;;;7.05;69.90
79413;BME280;68863;49.528;11.010;2023-04-09T02:19:23;98985.09;;;6.97;69.85
79413;BME280;68863;49.528;11.010;2023-04-09T02:20:24;98984.19;;;6.98;70.12
79413;BME280;68863;49.528;11.010;2023-04-09T02:21:24;98990.44;;;6.94;70.12
79413;BME280;68863;49.528;11.010;2023-04-09T02:22:26;98987.78;;;6.96;70.19
79413;BME280;68863;49.528;11.010;2023-04-09T02:23:26;98991.38;;;6.93;70.24
79413;BME280;68863;49.528;11.010;2023-04-09T02:24:26;98981.97;;;6.89;70.54
79413;BME280;68863;49.528;11.010;2023-04-09T02:25:26;98978.31;;;6.93;70.44
79413;BME280;68863;49.528;11.010;2023-04-09T02:26:27;98981.59;;;6.98;70.15
79413;BME280;68863;49.528;11.010;2023-04-09T02:27:27;98988.00;;;6.91;70.47
79413;BME280;68863;49.528;11.010;2023-04-09T02:28:27;98987.31;;;6.86;70.65
79413;BME280;68863;49.528;11.010;2023-04-09T02:29:27;98986.28;;;6.90;70.40
79413;BME280;68863;49.528;11.010;2023-04-09T02:30:28;98989.69;;;6.92;70.62
79413;BME280;68863;49.528;11.010;2023-04-09T02:31:28;98986.44;;;6.87;70.80
79413;BME280;68863;49.528;11.010;2023-04-09T02:32:28;98989.81;;;6.89;70.23
79413;BME280;68863;49.528;11.010;2023-04-09T02:33:28;98986.28;;;6.90;70.28
79413;BME280;68863;49.528;11.010;2023-04-09T02:34:29;98982.91;;;6.88;70.42
79413;BME280;68863;49.528;11.010;2023-04-09T02:35:29;98987.53;;;6.81;70.58
79413;BME280;68863;49.528;11.010;2023-04-09T02:36:30;98978.53;;;6.88;70.72
79413;BME280;68863;49.528;11.010;2023-04-09T02:37:30;98983.53;;;6.93;70.41
79413;BME280;68863;49.528;11.010;2023-04-09T02:38:30;98981.59;;;6.78;70.62
79413;BME280;68863;49.528;11.010;2023-04-09T02:39:31;98972.53;;;6.86;70.89
79413;BME280;68863;49.528;11.010;2023-04-09T02:40:31;98984.66;;;6.87;70.67
79413;BME280;68863;49.528;11.010;2023-04-09T02:41:31;98982.59;;;6.94;70.40
79413;BME280;68863;49.528;11.010;2023-04-09T02:42:32;98975.84;;;6.90;70.10
79413;BME280;68863;49.528;11.010;2023-04-09T02:43:32;98985.84;;;6.80;70.02
79413;BME280;68863;49.528;11.010;2023-04-09T02:44:32;98984.34;;;6.75;70.76
79413;BME280;68863;49.528;11.010;2023-04-09T02:45:32;98976.72;;;6.70;70.66
79413;BME280;68863;49.528;11.010;2023-04-09T02:46:33;98981.03;;;6.71;70.84
79413;BME280;68863;49.528;11.010;2023-04-09T02:47:33;98982.25;;;6.62;70.99
79413;BME280;68863;49.528;11.010;2023-04-09T02:48:33;98984.94;;;6.61;71.31
79413;BME280;68863;49.528;11.010;2023-04-09T02:49:34;98977.13;;;6.61;71.31
79413;BME280;68863;49.528;11.010;2023-04-09T02:50:34;98983.91;;;6.65;71.11
79413;BME280;68863;49.528;11.010;2023-04-09T02:51:34;98977.84;;;6.65;71.07
79413;BME280;68863;49.528;11.010;2023-04-09T02:52:35;98976.41;;;6.57;71.21
79413;BME280;68863;49.528;11.010;2023-04-09T02:53:35;98975.44;;;6.60;71.17
79413;BME280;68863;49.528;11.010;2023-04-09T02:54:36;98980.66;;;6.60;71.19
79413;BME280;68863;49.528;11.010;2023-04-09T02:55:37;98976.59;;;6.53;71.54
79413;BME280;68863;49.528;11.010;2023-04-09T02:56:37;98976.72;;;6.50;71.22
79413;BME280;68863;49.528;11.010;2023-04-09T02:57:37;98982.78;;;6.50;71.46
79413;BME280;68863;49.528;11.010;2023-04-09T02:58:37;98978.50;;;6.49;71.27
79413;BME280;68863;49.528;11.010;2023-04-09T02:59:38;98973.91;;;6.54;71.13
79413;BME280;68863;49.528;11.010;2023-04-09T03:00:39;98977.38;;;6.55;70.98
79413;BME280;68863;49.528;11.010;2023-04-09T03:01:40;98981.75;;;6.54;71.14
79413;BME280;68863;49.528;11.010;2023-04-09T03:02:40;98969.34;;;6.39;71.48
79413;BME280;68863;49.528;11.010;2023-04-09T03:03:41;98979.94;;;6.36;71.66
79413;BME280;68863;49.528;11.010;2023-04-09T03:04:41;98974.19;;;6.28;72.23
79413;BME280;68863;49.528;11.010;2023-04-09T03:05:42;98971.44;;;6.31;71.94
79413;BME280;68863;49.528;11.010;2023-04-09T03:06:43;98971.56;;;6.28;71.71
79413;BME280;68863;49.528;11.010;2023-04-09T03:07:43;98976.41;;;6.17;71.93
79413;BME280;68863;49.528;11.010;2023-04-09T03:08:44;98969.16;;;6.23;71.49
79413;BME280;68863;49.528;11.010;2023-04-09T03:09:44;98977.38;;;6.14;71.57
79413;BME280;68863;49.528;11.010;2023-04-09T03:10:44;98973.91;;;6.13;71.54
79413;BME280;68863;49.528;11.010;2023-04-09T03:11:45;98978.09;;;6.18;71.79
79413;BME280;68863;49.528;11.010;2023-04-09T03:12:45;98972.22;;;6.12;71.87
79413;BME280;68863;49.528;11.010;2023-04-09T03:13:46;98973.19;;;6.10;72.48
79413;BME280;68863;49.528;11.010;2023-04-09T03:14:47;98969.94;;;6.05;72.72
79413;BME280;68863;49.528;11.010;2023-04-09T03:15:51;98972.78;;;5.99;72.77
79413;BME280;68863;49.528;11.010;2023-04-09T03:16:52;98969.34;;;5.98;72.88
79413;BME280;68863;49.528;11.010;2023-04-09T03:17:52;98979.13;;;5.92;73.19
79413;BME280;68863;49.528;11.010;2023-04-09T03:18:52;98974.59;;;5.75;73.46
79413;BME280;68863;49.528;11.010;2023-04-09T03:19:52;98974.72;;;5.72;73.87
79413;BME280;68863;49.528;11.010;2023-04-09T03:20:53;98973.22;;;5.66;73.90
79413;BME280;68863;49.528;11.010;2023-04-09T03:21:53;98979.00;;;5.73;73.52
79413;BME280;68863;49.528;11.010;2023-04-09T03:22:53;98971.34;;;5.70;73.25
79413;BME280;68863;49.528;11.010;2023-04-09T03:23:53;98973.97;;;5.68;73.39
79413;BME280;68863;49.528;11.010;2023-04-09T03:24:55;98969.38;;;5.75;73.20
79413;BME280;68863;49.528;11.010;2023-04-09T03:26:02;98965.09;;;5.74;72.99
79413;BME280;68863;49.528;11.010;2023-04-09T03:27:03;98973.69;;;5.76;72.98
79413;BME280;68863;49.528;11.010;2023-04-09T03:28:03;98967.44;;;5.80;72.72
79413;BME280;68863;49.528;11.010;2023-04-09T03:29:04;98971.81;;;5.79;72.49
79413;BME280;68863;49.528;11.010;2023-04-09T03:30:05;98970.81;;;5.60;73.11
79413;BME280;68863;49.528;11.010;2023-04-09T03:31:06;98974.66;;;5.51;73.48
79413;BME280;68863;49.528;11.010;2023-04-09T03:32:06;98977.00;;;5.57;73.36
79413;BME280;68863;49.528;11.010;2023-04-09T03:33:06;98974.56;;;5.53;73.48
79413;BME280;68863;49.528;11.010;2023-04-09T03:34:06;98978.22;;;5.49;73.12
79413;BME280;68863;49.528;11.010;2023-04-09T03:35:07;98980.19;;;5.42;73.18
79413;BME280;68863;49.528;11.010;2023-04-09T03:36:07;98978.50;;;5.41;73.20
79413;BME280;68863;49.528;11.010;2023-04-09T03:37:07;98971.72;;;5.37;73.64
79413;BME280;68863;49.528;11.010;2023-04-09T03:38:08;98974.69;;;5.28;74.23
79413;BME280;68863;49.528;11.010;2023-04-09T03:39:08;98975.16;;;5.37;74.06
79413;BME280;68863;49.528;11.010;2023-04-09T03:40:09;98976.47;;;5.26;74.77
79413;BME280;68863;49.528;11.010;2023-04-09T03:41:09;98975.00;;;5.19;74.59
79413;BME280;68863;49.528;11.010;2023-04-09T03:42:10;98983.50;;;5.24;74.38
79413;BME280;68863;49.528;11.010;2023-04-09T03:43:10;98977.47;;;5.23;74.18
79413;BME280;68863;49.528;11.010;2023-04-09T03:44:10;98980.47;;;5.12;74.62
79413;BME280;68863;49.528;11.010;2023-04-09T03:45:10;98983.91;;;5.13;74.28
79413;BME280;68863;49.528;11.010;2023-04-09T03:46:14;98981.66;;;5.04;74.79
79413;BME280;68863;49.528;11.010;2023-04-09T03:47:15;98989.84;;;4.93;74.92
79413;BME280;68863;49.528;11.010;2023-04-09T03:48:15;98985.59;;;4.90;75.05
79413;BME280;68863;49.528;11.010;2023-04-09T03:49:15;98981.41;;;4.86;75.22
79413;BME280;68863;49.528;11.010;2023-04-09T03:50:15;98983.22;;;4.84;75.19
79413;BME280;68863;49.528;11.010;2023-04-09T03:51:17;98983.25;;;4.83;75.22
79413;BME280;68863;49.528;11.010;2023-04-09T03:52:17;98984.00;;;4.86;74.90
79413;BME280;68863;49.528;11.010;2023-04-09T03:53:17;98989.72;;;4.73;75.31
79413;BME280;68863;49.528;11.010;2023-04-09T03:54:18;98995.13;;;4.66;75.64
79413;BME280;68863;49.528;11.010;2023-04-09T03:55:18;98994.06;;;4.72;75.39
79413;BME280;68863;49.528;11.010;2023-04-09T03:56:18;98994.00;;;4.74;75.33
79413;BME280;68863;49.528;11.010;2023-04-09T03:57:19;98995.75;;;4.73;75.17
79413;BME280;68863;49.528;11.010;2023-04-09T03:58:19;98993.09;;;4.75;74.86
79413;BME280;68863;49.528;11.010;2023-04-09T03:59:19;98984.97;;;4.84;74.46
79413;BME280;68863;49.528;11.010;2023-04-09T04:00:20;98988.16;;;4.67;74.63
79413;BME280;68863;49.528;11.010;2023-04-09T04:01:21;98994.38;;;4.63;75.18
79413;BME280;68863;49.528;11.010;2023-04-09T04:02:21;98995.97;;;4.67;74.86
79413;BME280;68863;49.528;11.010;2023-04-09T04:03:21;98997.03;;;4.61;74.85
79413;BME280;68863;49.528;11.010;2023-04-09T04:04:22;99000.00;;;4.51;75.29
79413;BME280;68863;49.528;11.010;2023-04-09T04:05:23;98997.56;;;4.46;75.54
79413;BME280;68863;49.528;11.010;2023-04-09T04:06:24;98995.97;;;4.42;75.50
79413;BME280;68863;49.528;11.010;2023-04-09T04:07:25;99000.25;;;4.43;76.19
79413;BME280;68863;49.528;11.010;2023-04-09T04:08:25;98994.38;;;4.38;75.83
79413;BME280;68863;49.528;11.010;2023-04-09T04:09:25;98993.31;;;4.43;74.91
79413;BME280;68863;49.528;11.010;2023-04-09T04:10:25;98996.22;;;4.34;75.12
79413;BME280;68863;49.528;11.010;2023-04-09T04:11:26;98989.13;;;4.39;75.49
79413;BME280;68863;49.528;11.010;2023-04-09T04:12:26;99001.22;;;4.40;75.09
79413;BME280;68863;49.528;11.010;2023-04-09T04:13:26;98997.94;;;4.35;75.35
79413;BME280;68863;49.528;11.010;2023-04-09T04:14:26;98998.84;;;4.34;75.35
79413;BME280;68863;49.528;11.010;2023-04-09T04:15:27;98996.81;;;4.42;74.90
79413;BME280;68863;49.528;11.010;2023-04-09T04:16:28;99003.88;;;4.39;75.13
79413;BME280;68863;49.528;11.010;2023-04-09T04:17:28;99008.63;;;4.26;75.53
79413;BME280;68863;49.528;11.010;2023-04-09T04:18:28;99009.50;;;4.27;75.91
79413;BME280;68863;49.528;11.010;2023-04-09T04:19:29;99006.94;;;4.25;75.69
79413;BME280;68863;49.528;11.010;2023-04-09T04:20:31;99004.44;;;4.22;75.39
79413;BME280;68863;49.528;11.010;2023-04-09T04:21:32;98993.25;;;4.20;75.74
79413;BME280;68863;49.528;11.010;2023-04-09T04:22:33;99004.47;;;4.21;75.81
79413;BME280;68863;49.528;11.010;2023-04-09T04:23:34;99009.69;;;4.21;75.59
79413;BME280;68863;49.528;11.010;2023-04-09T04:24:34;99002.69;;;4.23;75.39
79413;BME280;68863;49.528;11.010;2023-04-09T04:25:34;99010.31;;;4.27;75.21
79413;BME280;68863;49.528;11.010;2023-04-09T04:26:35;99005.88;;;4.31;75.04
79413;BME280;68863;49.528;11.010;2023-04-09T04:27:35;99012.75;;;4.33;74.93
79413;BME280;68863;49.528;11.010;2023-04-09T04:28:39;99014.78;;;4.24;75.05
79413;BME280;68863;49.528;11.010;2023-04-09T04:29:39;99014.84;;;4.22;74.94
79413;BME280;68863;49.528;11.010;2023-04-09T04:30:41;99015.88;;;4.16;75.11
79413;BME280;68863;49.528;11.010;2023-04-09T04:31:41;99014.88;;;4.21;75.11
79413;BME280;68863;49.528;11.010;2023-04-09T04:32:42;99021.97;;;4.15;75.45
79413;BME280;68863;49.528;11.010;2023-04-09T04:33:42;99014.03;;;4.20;75.36
79413;BME280;68863;49.528;11.010;2023-04-09T04:34:42;99018.28;;;4.23;75.31
79413;BME280;68863;49.528;11.010;2023-04-09T04:35:42;99018.28;;;4.23;75.26
79413;BME280;68863;49.528;11.010;2023-04-09T04:36:43;99019.47;;;4.12;75.71
79413;BME280;68863;49.528;11.010;2023-04-09T04:37:43;99020.22;;;4.16;75.15
79413;BME280;68863;49.528;11.010;2023-04-09T04:38:43;99025.38;;;4.17;75.04
79413;BME280;68863;49.528;11.010;2023-04-09T04:39:43;99024.72;;;4.11;75.73
79413;BME280;68863;49.528;11.010;2023-04-09T04:40:44;99024.72;;;4.11;75.39
79413;BME280;68863;49.528;11.010;2023-04-09T04:41:44;99029.78;;;4.15;75.38
79413;BME280;68863;49.528;11.010;2023-04-09T04:42:44;99034.28;;;4.10;75.48
79413;BME280;68863;49.528;11.010;2023-04-09T04:43:45;99028.88;;;4.16;75.52
79413;BME280;68863;49.528;11.010;2023-04-09T04:44:46;99028.13;;;4.13;75.82
79413;BME280;68863;49.528;11.010;2023-04-09T04:45:46;99025.56;;;4.11;75.57
79413;BME280;68863;49.528;11.010;2023-04-09T04:46:46;99032.81;;;4.02;75.56
79413;BME280;68863;49.528;11.010;2023-04-09T04:47:46;99026.34;;;4.13;75.48
79413;BME280;68863;49.528;11.010;2023-04-09T04:48:47;99033.19;;;4.17;75.20
79413;BME280;68863;49.528;11.010;2023-04-09T04:49:47;99033.19;;;4.17;75.20
79413;BME280;68863;49.528;11.010;2023-04-09T04:50:57;99033.97;;;4.20;75.31
79413;BME280;68863;49.528;11.010;2023-04-09T04:51:57;99030.47;;;4.21;75.20
79413;BME280;68863;49.528;11.010;2023-04-09T04:52:57;99034.72;;;4.23;75.02
79413;BME280;68863;49.528;11.010;2023-04-09T04:53:58;99029.44;;;4.26;74.99
79413;BME280;68863;49.528;11.010;2023-04-09T04:54:58;99028.63;;;4.24;74.91
79413;BME280;68863;49.528;11.010;2023-04-09T04:55:58;99038.06;;;4.27;74.93
79413;BME280;68863;49.528;11.010;2023-04-09T04:56:58;99033.91;;;4.21;74.79
79413;BME280;68863;49.528;11.010;2023-04-09T04:58:00;99033.06;;;4.21;74.86
79413;BME280;68863;49.528;11.010;2023-04-09T04:59:00;99034.78;;;4.22;74.88
79413;BME280;68863;49.528;11.010;2023-04-09T05:00:00;99046.91;;;4.21;74.89
79413;BME280;68863;49.528;11.010;2023-04-09T05:01:00;99038.06;;;4.27;74.88
79413;BME280;68863;49.528;11.010;2023-04-09T05:02:01;99044.06;;;4.29;74.77
79413;BME280;68863;49.528;11.010;2023-04-09T05:03:01;99038.06;;;4.27;74.44
79413;BME280;68863;49.528;11.010;2023-04-09T05:04:01;99037.38;;;4.22;74.60
79413;BME280;68863;49.528;11.010;2023-04-09T05:05:03;99043.47;;;4.21;74.87
79413;BME280;68863;49.528;11.010;2023-04-09T05:06:03;99041.06;;;4.14;74.86
79413;BME280;68863;49.528;11.010;2023-04-09T05:07:04;99041.22;;;4.10;74.99
79413;BME280;68863;49.528;11.010;2023-04-09T05:08:04;99038.81;;;4.04;75.18
79413;BME280;68863;49.528;11.010;2023-04-09T05:09:04;99043.47;;;3.94;75.93
79413;BME280;68863;49.528;11.010;2023-04-09T05:10:05;99042.56;;;3.95;75.82
79413;BME280;68863;49.528;11.010;2023-04-09T05:11:06;99037.97;;;4.03;75.80
79413;BME280;68863;49.528;11.010;2023-04-09T05:12:07;99045.78;;;4.02;75.70
79413;BME280;68863;49.528;11.010;2023-04-09T05:13:07;99037.44;;;3.92;75.93
79413;BME280;68863;49.528;11.010;2023-04-09T05:14:07;99037.38;;;3.93;76.20
79413;BME280;68863;49.528;11.010;2023-04-09T05:15:08;99044.25;;;3.96;75.67
79413;BME280;68863;49.528;11.010;2023-04-09T05:16:15;99038.50;;;3.86;76.07
79413;BME280;68863;49.528;11.010;2023-04-09T05:17:15;99036.75;;;3.87;76.05
79413;BME280;68863;49.528;11.010;2023-04-09T05:18:16;99036.63;;;3.90;75.83
79413;BME280;68863;49.528;11.010;2023-04-09T05:19:16;99041.22;;;3.82;75.74
79413;BME280;68863;49.528;11.010;2023-04-09T05:20:16;99039.28;;;3.88;76.21
79413;BME280;68863;49.528;11.010;2023-04-09T05:21:16;99040.72;;;3.99;75.54
79413;BME280;68863;49.528;11.010;2023-04-09T05:22:17;99037.97;;;4.03;75.49
79413;BME280;68863;49.528;11.010;2023-04-09T05:23:17;99038.34;;;3.91;75.87
79413;BME280;68863;49.528;11.010;2023-04-09T05:24:17;99038.28;;;3.94;75.64
79413;BME280;68863;49.528;11.010;2023-04-09T05:25:18;99041.09;;;3.86;75.73
79413;BME280;68863;49.528;11.010;2023-04-09T05:26:18;99034.03;;;3.90;75.97
79413;BME280;68863;49.528;11.010;2023-04-09T05:27:18;99038.44;;;3.88;76.04
79413;BME280;68863;49.528;11.010;2023-04-09T05:28:21;99037.44;;;3.92;76.08
79413;BME280;68863;49.528;11.010;2023-04-09T05:29:21;99038.28;;;3.94;76.01
79413;BME280;68863;49.528;11.010;2023-04-09T05:30:21;99039.97;;;3.95;76.35
79413;BME280;68863;49.528;11.010;2023-04-09T05:31:22;99044.34;;;3.93;76.39